createdAt,value
2024-02-02T00:00:59.895Z,9.90
2024-02-02T00:03:26.950Z,8.05
2024-02-02T00:05:53.918Z,8.60
2024-02-02T00:08:22.283Z,13.73
2024-02-02T00:10:48.940Z,9.57
2024-02-02T00:13:15.946Z,10.23
2024-02-02T00:15:42.634Z,9.15
2024-02-02T00:18:09.739Z,10.27
2024-02-02T00:20:36.508Z,13.20
2024-02-02T00:23:03.173Z,10.57
2024-02-02T00:25:29.935Z,6.07
2024-02-02T00:27:56.852Z,10.45
2024-02-02T00:30:23.559Z,9.85
2024-02-02T00:32:50.393Z,8.30
2024-02-02T00:35:17.504Z,9.65
2024-02-02T00:37:45.736Z,9.93
2024-02-02T00:40:12.929Z,6.80
2024-02-02T00:42:39.658Z,8.90
2024-02-02T00:45:07.093Z,9.57
2024-02-02T00:47:33.837Z,8.27
2024-02-02T00:50:01.173Z,8.77
2024-02-02T00:52:28.330Z,10.50
2024-02-02T00:54:55.645Z,10.38
2024-02-02T00:57:22.357Z,8.68
2024-02-02T00:59:51.591Z,8.23
2024-02-02T01:02:19.034Z,9.20
2024-02-02T01:04:45.792Z,11.60
2024-02-02T01:07:15.268Z,7.18
2024-02-02T01:09:41.970Z,8.52
2024-02-02T01:12:10.265Z,8.32
2024-02-02T01:14:39.283Z,12.77
2024-02-02T01:17:06.871Z,7.93
2024-02-02T01:19:33.651Z,11.23
2024-02-02T01:22:00.447Z,10.32
2024-02-02T01:24:28.215Z,10.52
2024-02-02T01:26:54.977Z,5.97
2024-02-02T01:29:22.424Z,18.80
2024-02-02T01:31:49.585Z,9.27
2024-02-02T01:34:16.406Z,12.55
2024-02-02T01:36:43.538Z,10.05
2024-02-02T01:39:12.604Z,10.05
2024-02-02T01:41:39.695Z,9.27
2024-02-02T01:44:07.269Z,11.55
2024-02-02T01:46:34.230Z,15.45
2024-02-02T01:49:01.208Z,7.90
2024-02-02T01:51:28.300Z,10.57
2024-02-02T01:53:55.307Z,12.18
2024-02-02T01:56:22.138Z,14.98
2024-02-02T01:58:48.960Z,11.98
2024-02-02T02:01:15.753Z,11.30
2024-02-02T02:03:42.509Z,7.55
2024-02-02T02:06:10.025Z,14.27
2024-02-02T02:08:37.159Z,13.77
2024-02-02T02:11:04.056Z,16.00
2024-02-02T02:13:31.944Z,9.07
2024-02-02T02:15:58.607Z,9.50
2024-02-02T02:18:25.726Z,10.68
2024-02-02T02:20:55.500Z,12.95
2024-02-02T02:23:22.243Z,12.32
2024-02-02T02:25:48.886Z,10.38
2024-02-02T02:28:15.918Z,10.00
2024-02-02T02:30:46.008Z,9.88
2024-02-02T02:33:13.174Z,19.95
2024-02-02T02:35:39.932Z,12.95
2024-02-02T02:38:06.605Z,10.07
2024-02-02T02:40:33.275Z,20.80
2024-02-02T02:43:00.176Z,10.57
2024-02-02T02:45:27.002Z,14.20
2024-02-02T02:47:53.872Z,8.00
2024-02-02T02:50:20.613Z,12.65
2024-02-02T02:52:47.614Z,16.08
2024-02-02T02:55:14.385Z,9.88
2024-02-02T02:57:41.267Z,10.57
2024-02-02T03:00:10.975Z,12.75
2024-02-02T03:02:37.800Z,12.50
2024-02-02T03:05:05.127Z,9.52
2024-02-02T03:07:31.828Z,11.23
2024-02-02T03:09:58.839Z,11.00
2024-02-02T03:12:25.517Z,12.23
2024-02-02T03:14:52.263Z,11.27
2024-02-02T03:17:18.913Z,14.13
2024-02-02T03:19:46.507Z,13.40
2024-02-02T03:22:13.222Z,13.00
2024-02-02T03:24:39.965Z,12.25
2024-02-02T03:27:06.726Z,12.52
2024-02-02T03:29:33.734Z,10.05
2024-02-02T03:32:00.622Z,12.25
2024-02-02T03:34:27.464Z,11.98
2024-02-02T03:36:54.191Z,12.82
2024-02-02T03:39:21.945Z,12.75
2024-02-02T03:41:48.639Z,15.00
2024-02-02T03:44:15.423Z,11.60
2024-02-02T03:46:42.101Z,30.13
2024-02-02T03:49:09.438Z,10.77
2024-02-02T03:51:36.257Z,25.58
2024-02-02T03:54:03.279Z,15.48
2024-02-02T03:56:30.692Z,16.20
2024-02-02T03:58:57.967Z,14.48
2024-02-02T04:01:24.754Z,14.32
2024-02-02T04:03:51.826Z,19.38
2024-02-02T04:06:19.090Z,12.35
2024-02-02T04:08:45.772Z,12.77
2024-02-02T04:11:12.870Z,13.82
2024-02-02T04:13:39.549Z,12.38
2024-02-02T04:16:06.663Z,13.48
2024-02-02T04:18:33.473Z,14.38
2024-02-02T04:21:00.214Z,9.80
2024-02-02T04:23:26.936Z,15.45
2024-02-02T04:25:53.628Z,16.00
2024-02-02T04:28:20.276Z,9.30
2024-02-02T04:30:47.497Z,10.43
2024-02-02T04:33:14.698Z,11.27
2024-02-02T04:35:41.464Z,10.55
2024-02-02T04:38:08.146Z,7.80
2024-02-02T04:40:34.829Z,9.57
2024-02-02T04:43:01.994Z,9.13
2024-02-02T04:45:29.887Z,11.15
2024-02-02T04:47:57.035Z,11.93
2024-02-02T04:50:26.916Z,7.03
2024-02-02T04:52:53.946Z,14.00
2024-02-02T04:55:20.620Z,13.05
2024-02-02T04:57:47.712Z,14.18
2024-02-02T05:00:15.081Z,10.32
2024-02-02T05:02:41.789Z,13.15
2024-02-02T05:05:08.681Z,8.93
2024-02-02T05:07:38.503Z,10.80
2024-02-02T05:10:08.569Z,19.48
2024-02-02T05:12:35.800Z,14.50
2024-02-02T05:15:03.265Z,11.60
2024-02-02T05:17:30.541Z,13.38
2024-02-02T05:19:57.311Z,11.00
2024-02-02T05:22:24.404Z,13.18
2024-02-02T05:24:51.227Z,11.75
2024-02-02T05:27:18.405Z,13.25
2024-02-02T05:29:46.187Z,14.95
2024-02-02T05:32:13.014Z,14.77
2024-02-02T05:34:39.872Z,18.73
2024-02-02T05:37:06.668Z,11.98
2024-02-02T05:39:33.762Z,8.77
2024-02-02T05:42:01.417Z,12.80
2024-02-02T05:44:28.321Z,11.68
2024-02-02T05:46:54.979Z,10.52
2024-02-02T05:49:22.121Z,13.23
2024-02-02T05:51:49.108Z,11.45
2024-02-02T05:54:15.857Z,14.75
2024-02-02T05:56:42.527Z,13.00
2024-02-02T05:59:09.546Z,13.82
2024-02-02T06:01:36.302Z,10.30
2024-02-02T06:04:03.440Z,12.88
2024-02-02T06:06:30.407Z,13.43
2024-02-02T06:08:59.801Z,14.35
2024-02-02T06:11:27.301Z,10.75
2024-02-02T06:13:57.330Z,12.43
2024-02-02T06:16:24.443Z,12.25
2024-02-02T06:18:51.607Z,15.32
2024-02-02T06:21:18.804Z,16.83
2024-02-02T06:23:45.850Z,14.93
2024-02-02T06:26:12.552Z,15.45
2024-02-02T06:28:39.223Z,11.95
2024-02-02T06:31:06.201Z,9.50
2024-02-02T06:33:32.985Z,12.23
2024-02-02T06:35:59.813Z,12.00
2024-02-02T06:38:26.491Z,13.07
2024-02-02T06:40:53.247Z,12.77
2024-02-02T06:43:19.936Z,13.38
2024-02-02T06:45:49.307Z,15.43
2024-02-02T06:48:16.581Z,13.75
2024-02-02T06:50:45.374Z,11.98
2024-02-02T06:53:12.328Z,13.05
2024-02-02T06:55:39.125Z,15.77
2024-02-02T06:58:05.882Z,16.27
2024-02-02T07:00:32.927Z,16.42
2024-02-02T07:03:00.148Z,10.23
2024-02-02T07:05:27.482Z,16.00
2024-02-02T07:07:54.477Z,17.05
2024-02-02T07:10:21.686Z,12.23
2024-02-02T07:12:59.337Z,10.18
2024-02-02T07:15:40.132Z,14.90
2024-02-02T07:18:13.691Z,13.13
2024-02-02T07:21:06.178Z,11.35
2024-02-02T07:23:35.850Z,17.92
2024-02-02T07:26:04.823Z,15.15
2024-02-02T07:28:42.196Z,14.23
2024-02-02T07:31:10.331Z,11.25
2024-02-02T07:33:43.568Z,15.98
2024-02-02T07:36:24.729Z,14.63
2024-02-02T07:38:55.235Z,9.75
2024-02-02T07:41:29.298Z,16.63
2024-02-02T07:43:58.638Z,13.57
2024-02-02T07:46:25.879Z,13.15
2024-02-02T07:48:55.424Z,15.43
2024-02-02T07:51:24.058Z,13.20
2024-02-02T07:53:51.084Z,14.45
2024-02-02T07:56:23.896Z,9.30
2024-02-02T07:58:50.862Z,15.23
2024-02-02T08:01:17.762Z,13.80
2024-02-02T08:03:44.654Z,12.63
2024-02-02T08:06:11.686Z,13.68
2024-02-02T08:08:38.918Z,13.30
2024-02-02T08:11:05.686Z,10.35
2024-02-02T08:13:33.106Z,9.63
2024-02-02T08:16:00.536Z,11.75
2024-02-02T08:18:29.256Z,13.07
2024-02-02T08:20:56.369Z,17.63
2024-02-02T08:23:23.299Z,13.57
2024-02-02T08:25:49.968Z,14.52
2024-02-02T08:28:16.814Z,9.68
2024-02-02T08:30:43.585Z,10.18
2024-02-02T08:33:10.687Z,7.65
2024-02-02T08:35:37.485Z,11.45
2024-02-02T08:38:06.724Z,11.23
2024-02-02T08:40:44.938Z,8.80
2024-02-02T08:43:15.004Z,9.65
2024-02-02T08:45:44.721Z,12.77
2024-02-02T08:48:34.921Z,10.95
2024-02-02T08:51:02.124Z,8.55
2024-02-02T08:53:29.112Z,9.90
2024-02-02T08:56:00.870Z,11.20
2024-02-02T09:01:01.118Z,7.20
2024-02-02T09:03:48.712Z,11.23
2024-02-02T09:06:43.653Z,10.27
2024-02-02T09:09:16.413Z,11.40
2024-02-02T09:11:49.058Z,10.55
2024-02-02T09:14:19.485Z,10.52
2024-02-02T09:16:51.057Z,8.15
2024-02-02T09:19:27.125Z,12.50
2024-02-02T09:22:05.737Z,8.70
2024-02-02T09:24:43.946Z,10.98
2024-02-02T09:27:14.001Z,8.13
2024-02-02T09:29:48.914Z,9.73
2024-02-02T09:32:17.057Z,7.47
2024-02-02T09:34:44.660Z,9.98
2024-02-02T09:37:20.353Z,9.88
2024-02-02T09:39:55.585Z,9.23
2024-02-02T09:42:40.533Z,10.20
2024-02-02T09:45:13.423Z,7.65
2024-02-02T09:47:43.029Z,8.20
2024-02-02T09:50:20.459Z,10.20
2024-02-02T09:53:05.896Z,10.18
2024-02-02T09:55:59.215Z,9.15
2024-02-02T09:58:38.257Z,8.88
2024-02-02T10:01:17.191Z,7.28
2024-02-02T10:04:09.750Z,8.15
2024-02-02T10:06:45.976Z,9.57
2024-02-02T10:09:54.752Z,7.72
2024-02-02T10:12:44.177Z,7.60
2024-02-02T10:15:30.033Z,12.30
2024-02-02T10:18:06.090Z,6.32
2024-02-02T10:20:39.214Z,9.73
2024-02-02T10:23:25.383Z,5.38
2024-02-02T10:26:02.748Z,4.90
2024-02-02T10:29:00.502Z,9.00
2024-02-02T10:31:50.988Z,6.90
2024-02-02T10:37:12.104Z,8.00
2024-02-02T10:39:59.381Z,8.80
2024-02-02T10:42:36.448Z,5.72
2024-02-02T10:45:12.562Z,7.22
2024-02-02T10:48:24.583Z,7.75
2024-02-02T10:51:25.113Z,8.57
2024-02-02T10:54:11.835Z,5.32
2024-02-02T10:57:02.468Z,7.75
2024-02-02T11:00:08.617Z,7.18
2024-02-02T11:03:02.276Z,4.97
2024-02-02T11:05:48.358Z,11.02
2024-02-02T11:08:23.898Z,5.63
2024-02-02T11:11:01.294Z,8.35
2024-02-02T11:13:57.371Z,6.35
2024-02-02T11:16:35.850Z,6.57
2024-02-02T11:19:18.340Z,6.18
2024-02-02T11:22:28.293Z,5.30
2024-02-02T11:25:13.166Z,8.25
2024-02-02T11:27:47.338Z,4.38
2024-02-02T11:30:23.405Z,5.45
2024-02-02T11:33:02.416Z,6.88
2024-02-02T11:35:34.751Z,9.77
2024-02-02T11:38:13.552Z,4.78
2024-02-02T11:40:41.002Z,4.85
2024-02-02T11:43:10.322Z,7.75
2024-02-02T11:45:41.466Z,4.55
2024-02-02T11:48:14.580Z,9.70
2024-02-02T11:50:44.697Z,5.50
2024-02-02T11:53:24.787Z,5.90
2024-02-02T11:55:55.440Z,6.28
2024-02-02T11:58:23.383Z,7.70
2024-02-02T12:01:13.757Z,5.65
2024-02-02T12:06:12.554Z,4.93
2024-02-02T12:11:29.057Z,6.35
2024-02-02T12:14:01.561Z,8.68
2024-02-02T12:16:28.210Z,9.43
2024-02-02T12:18:54.971Z,7.60
2024-02-02T12:21:22.653Z,6.35
2024-02-02T12:23:49.438Z,6.07
2024-02-02T12:26:16.517Z,5.53
2024-02-02T12:28:43.527Z,5.18
2024-02-02T12:31:10.170Z,4.38
2024-02-02T12:33:37.109Z,4.30
2024-02-02T12:36:09.843Z,5.55
2024-02-02T12:38:39.226Z,5.97
2024-02-02T12:41:05.956Z,7.82
2024-02-02T12:43:32.659Z,6.65
2024-02-02T12:45:59.405Z,7.82
2024-02-02T12:48:26.824Z,4.05
2024-02-02T12:50:53.659Z,9.55
2024-02-02T12:53:21.620Z,7.25
2024-02-02T12:55:48.341Z,6.38
2024-02-02T12:58:15.013Z,6.35
2024-02-02T13:00:42.049Z,7.45
2024-02-02T13:03:09.801Z,5.22
2024-02-02T13:05:38.717Z,3.53
2024-02-02T13:08:05.489Z,4.03
2024-02-02T13:10:48.827Z,4.22
2024-02-02T13:13:19.047Z,3.58
2024-02-02T13:15:46.413Z,3.30
2024-02-02T13:18:16.339Z,3.17
2024-02-02T13:20:47.542Z,4.72
2024-02-02T13:23:25.514Z,4.40
2024-02-02T13:25:54.099Z,4.80
2024-02-02T13:28:21.164Z,5.72
2024-02-02T13:31:02.407Z,7.22
2024-02-02T13:33:31.597Z,4.70
2024-02-02T13:35:59.586Z,5.85
2024-02-02T13:38:28.838Z,3.92
2024-02-02T13:40:56.291Z,7.03
2024-02-02T13:43:25.457Z,4.45
2024-02-02T13:46:07.034Z,8.60
2024-02-02T13:48:38.514Z,5.35
2024-02-02T13:51:06.395Z,6.53
2024-02-02T13:53:33.146Z,3.47
2024-02-02T13:56:05.402Z,3.65
2024-02-02T13:58:42.041Z,5.90
2024-02-02T14:01:29.546Z,5.13
2024-02-02T14:03:56.888Z,3.67
2024-02-02T14:06:25.172Z,6.50
2024-02-02T14:08:53.236Z,4.10
2024-02-02T14:11:33.174Z,4.70
2024-02-02T14:13:59.961Z,3.35
2024-02-02T14:16:27.941Z,6.72
2024-02-02T14:19:05.692Z,6.75
2024-02-02T14:24:07.790Z,3.58
2024-02-02T14:26:34.561Z,5.97
2024-02-02T14:29:01.788Z,8.43
2024-02-02T14:31:28.833Z,6.18
2024-02-02T14:33:55.600Z,6.50
2024-02-02T14:36:22.452Z,7.40
2024-02-02T14:38:50.636Z,8.35
2024-02-02T14:41:17.311Z,5.57
2024-02-02T14:43:43.991Z,5.38
2024-02-02T14:46:10.722Z,5.38
2024-02-02T14:48:38.990Z,5.90
2024-02-02T14:51:06.183Z,10.02
2024-02-02T14:53:32.916Z,5.97
2024-02-02T14:56:00.082Z,8.77
2024-02-02T14:58:26.895Z,7.53
2024-02-02T15:00:55.588Z,6.75
2024-02-02T15:03:22.442Z,4.13
2024-02-02T15:05:49.217Z,6.13
2024-02-02T15:08:15.916Z,6.47
2024-02-02T15:10:42.691Z,3.30
2024-02-02T15:13:10.230Z,6.22
2024-02-02T15:15:36.935Z,5.43
2024-02-02T15:18:05.127Z,5.13
2024-02-02T15:20:31.868Z,4.63
2024-02-02T15:22:58.573Z,6.82
2024-02-02T15:25:25.248Z,4.53
2024-02-02T15:27:52.200Z,4.50
2024-02-02T15:30:18.941Z,5.75
2024-02-02T15:32:46.849Z,7.05
2024-02-02T15:35:16.821Z,5.63
2024-02-02T15:37:43.935Z,2.92
2024-02-02T15:40:11.160Z,6.45
2024-02-02T15:42:37.968Z,5.28
2024-02-02T15:45:06.861Z,7.07
2024-02-02T15:47:36.558Z,5.03
2024-02-02T15:50:04.098Z,5.55
2024-02-02T15:52:30.994Z,6.20
2024-02-02T15:55:00.815Z,5.32
2024-02-02T15:57:27.639Z,4.38
2024-02-02T15:59:54.471Z,8.73
2024-02-02T16:02:21.227Z,3.50
2024-02-02T16:04:47.985Z,6.25
2024-02-02T16:07:14.811Z,4.40
2024-02-02T16:09:42.473Z,5.97
2024-02-02T16:12:11.460Z,8.73
2024-02-02T16:14:39.122Z,5.43
2024-02-02T16:17:07.746Z,4.25
2024-02-02T16:19:35.520Z,6.47
2024-02-02T16:22:02.344Z,6.72
2024-02-02T16:24:30.579Z,3.15
2024-02-02T16:26:57.295Z,8.25
2024-02-02T16:29:24.539Z,4.80
2024-02-02T16:31:56.061Z,6.60
2024-02-02T16:34:26.170Z,6.85
2024-02-02T16:36:56.547Z,4.38
2024-02-02T16:39:26.490Z,3.95
2024-02-02T16:41:54.243Z,6.40
2024-02-02T16:44:21.980Z,4.00
2024-02-02T16:46:52.171Z,4.13
2024-02-02T16:49:19.636Z,4.45
2024-02-02T16:51:47.359Z,6.28
2024-02-02T16:54:20.130Z,4.63
2024-02-02T16:56:50.259Z,3.42
2024-02-02T16:59:19.153Z,10.90
2024-02-02T17:01:47.245Z,6.68
2024-02-02T17:04:17.170Z,4.50
2024-02-02T17:06:44.479Z,4.47
2024-02-02T17:09:11.762Z,6.47
2024-02-02T17:11:39.433Z,4.82
2024-02-02T17:14:10.032Z,3.35
2024-02-02T17:16:40.046Z,8.90
2024-02-02T17:19:19.796Z,7.15
2024-02-02T17:21:47.136Z,3.97
2024-02-02T17:24:19.322Z,6.40
2024-02-02T17:26:54.873Z,6.40
2024-02-02T17:29:22.317Z,7.13
2024-02-02T17:31:50.692Z,6.45
2024-02-02T17:34:21.390Z,3.60
2024-02-02T17:36:48.807Z,7.63
2024-02-02T17:39:16.201Z,8.25
2024-02-02T17:41:48.386Z,8.15
2024-02-02T17:44:22.694Z,11.02
2024-02-02T17:46:54.175Z,10.63
2024-02-02T17:49:21.900Z,12.05
2024-02-02T17:51:52.400Z,8.50
2024-02-02T17:54:23.564Z,12.15
2024-02-02T17:56:50.882Z,11.77
2024-02-02T17:59:19.563Z,10.18
2024-02-02T18:01:47.486Z,7.30
2024-02-02T18:04:14.836Z,8.07
2024-02-02T18:06:42.023Z,5.80
2024-02-02T18:09:11.395Z,4.45
2024-02-02T18:11:38.588Z,6.88
2024-02-02T18:14:10.927Z,6.35
2024-02-02T18:16:38.125Z,9.70
2024-02-02T18:19:05.373Z,6.78
2024-02-02T18:21:34.900Z,6.68
2024-02-02T18:24:04.284Z,6.65
2024-02-02T18:26:31.930Z,9.35
2024-02-02T18:29:00.317Z,9.57
2024-02-02T18:31:29.820Z,6.35
2024-02-02T18:33:57.464Z,6.95
2024-02-02T18:36:25.301Z,6.15
2024-02-02T18:38:58.259Z,8.43
2024-02-02T18:41:31.227Z,5.88
2024-02-02T18:44:01.558Z,4.90
2024-02-02T18:46:34.525Z,7.07
2024-02-02T18:49:02.035Z,6.00
2024-02-02T18:51:29.208Z,7.53
2024-02-02T18:53:57.207Z,9.55
2024-02-02T18:56:24.454Z,6.90
2024-02-02T18:58:51.518Z,6.75
2024-02-02T19:01:31.028Z,4.00
2024-02-02T19:04:02.873Z,6.45
2024-02-02T19:06:30.143Z,7.22
2024-02-02T19:08:57.455Z,6.68
2024-02-02T19:11:24.993Z,6.65
2024-02-02T19:13:54.361Z,5.32
2024-02-02T19:16:27.665Z,6.38
2024-02-02T19:18:56.888Z,5.65
2024-02-02T19:21:41.634Z,6.43
2024-02-02T19:24:09.171Z,4.60
2024-02-02T19:26:36.759Z,8.93
2024-02-02T19:29:04.147Z,7.18
2024-02-02T19:31:33.426Z,6.72
2024-02-02T19:34:00.897Z,7.20
2024-02-02T19:36:29.953Z,8.43
2024-02-02T19:39:01.812Z,10.13
2024-02-02T19:41:34.304Z,5.75
2024-02-02T19:44:04.337Z,7.00
2024-02-02T19:46:32.949Z,5.55
2024-02-02T19:49:03.028Z,6.68
2024-02-02T19:51:30.810Z,7.90
2024-02-02T19:53:58.468Z,7.85
2024-02-02T19:56:31.859Z,5.45
2024-02-02T19:59:04.422Z,4.70
2024-02-02T20:01:33.383Z,11.32
2024-02-02T20:04:00.884Z,8.90
2024-02-02T20:06:29.937Z,5.05
2024-02-02T20:08:57.642Z,7.90
2024-02-02T20:11:27.513Z,7.63
2024-02-02T20:13:55.171Z,6.78
2024-02-02T20:16:22.544Z,7.38
2024-02-02T20:18:51.050Z,6.20
2024-02-02T20:21:20.338Z,6.93
2024-02-02T20:23:51.832Z,4.70
2024-02-02T20:26:20.523Z,7.50
2024-02-02T20:28:49.134Z,8.45
2024-02-02T20:31:16.522Z,8.10
2024-02-02T20:33:44.120Z,7.80
2024-02-02T20:36:11.986Z,10.25
2024-02-02T20:38:39.481Z,7.25
2024-02-02T20:41:07.645Z,6.57
2024-02-02T20:43:34.861Z,7.75
2024-02-02T20:46:02.475Z,6.55
2024-02-02T20:48:29.800Z,8.18
2024-02-02T20:50:57.191Z,8.57
2024-02-02T20:53:24.552Z,6.85
2024-02-02T20:55:52.214Z,17.77
2024-02-02T20:58:22.314Z,7.80
2024-02-02T21:00:49.874Z,7.07
2024-02-02T21:03:24.039Z,7.80
2024-02-02T21:05:51.423Z,11.25
2024-02-02T21:08:21.836Z,11.57
2024-02-02T21:10:57.670Z,14.10
2024-02-02T21:13:27.120Z,9.73
2024-02-02T21:15:56.468Z,9.80
2024-02-02T21:18:25.086Z,8.85
2024-02-02T21:20:54.436Z,7.30
2024-02-02T21:23:21.605Z,9.88
2024-02-02T21:25:48.744Z,9.88
2024-02-02T21:28:16.650Z,8.32
2024-02-02T21:30:45.062Z,9.30
2024-02-02T21:33:17.737Z,9.60
2024-02-02T21:35:49.412Z,7.15
2024-02-02T21:38:16.723Z,11.63
2024-02-02T21:40:43.833Z,10.43
2024-02-02T21:43:16.501Z,15.75
2024-02-02T21:45:43.706Z,13.93
2024-02-02T21:48:12.210Z,10.38
2024-02-02T21:50:43.192Z,7.78
2024-02-02T21:53:18.181Z,9.45
2024-02-02T21:55:51.105Z,11.40
2024-02-02T21:58:23.755Z,7.65
2024-02-02T22:00:54.114Z,10.30
2024-02-02T22:03:21.200Z,9.10
2024-02-02T22:05:50.554Z,7.88
2024-02-02T22:08:17.668Z,14.18
2024-02-02T22:10:45.181Z,15.90
2024-02-02T22:13:12.533Z,10.50
2024-02-02T22:15:42.056Z,10.80
2024-02-02T22:18:12.341Z,7.93
2024-02-02T22:20:39.423Z,9.82
2024-02-02T22:23:07.357Z,7.30
2024-02-02T22:25:36.269Z,9.35
2024-02-02T22:28:07.241Z,9.43
2024-02-02T22:30:34.555Z,8.68
2024-02-02T22:33:04.685Z,8.63
2024-02-02T22:35:37.950Z,8.13
2024-02-02T22:38:05.469Z,11.10
2024-02-02T22:40:33.571Z,9.00
2024-02-02T22:43:01.180Z,7.68
2024-02-02T22:45:37.556Z,6.88
2024-02-02T22:48:05.656Z,7.97
2024-02-02T22:50:38.107Z,7.90
2024-02-02T22:53:07.500Z,8.18
2024-02-02T22:55:37.834Z,7.18
2024-02-02T22:58:08.659Z,9.32
2024-02-02T23:00:45.421Z,7.25
2024-02-02T23:03:14.949Z,7.88
2024-02-02T23:05:47.011Z,7.80
2024-02-02T23:08:14.382Z,6.05
2024-02-02T23:10:44.292Z,8.55
2024-02-02T23:13:11.441Z,9.80
2024-02-02T23:15:42.141Z,8.48
2024-02-02T23:18:09.490Z,6.88
2024-02-02T23:20:38.214Z,8.05
2024-02-02T23:23:13.475Z,11.63
2024-02-02T23:25:42.664Z,9.93
2024-02-02T23:28:09.986Z,6.78
2024-02-02T23:30:39.677Z,7.28
2024-02-02T23:33:06.981Z,12.10
2024-02-02T23:35:34.106Z,9.15
2024-02-02T23:38:01.586Z,5.45
2024-02-02T23:40:34.265Z,7.28
2024-02-02T23:43:06.695Z,7.53
2024-02-02T23:45:33.802Z,8.13
2024-02-02T23:48:01.003Z,8.32
2024-02-02T23:50:28.502Z,7.05
2024-02-02T23:53:05.274Z,16.30
2024-02-02T23:55:39.782Z,9.18
2024-02-02T23:58:13.045Z,7.75
